sensor_id;sensor_type;location;lat;lon;timestamp;P1;durP1;ratioP1;P2;durP2;ratioP2
74894;SDS011;63447;49.446;8.666;2023-07-30T00:01:54;7.13;;;3.33;;
74894;SDS011;63447;49.446;8.666;2023-07-30T00:04:19;6.95;;;3.35;;
74894;SDS011;63447;49.446;8.666;2023-07-30T00:06:49;5.80;;;3.00;;
74894;SDS011;63447;49.446;8.666;2023-07-30T00:09:15;7.90;;;3.43;;
74894;SDS011;63447;49.446;8.666;2023-07-30T00:11:42;6.05;;;3.33;;
74894;SDS011;63447;49.446;8.666;2023-07-30T00:14:10;6.25;;;3.45;;
74894;SDS011;63447;49.446;8.666;2023-07-30T00:16:37;6.07;;;3.30;;
74894;SDS011;63447;49.446;8.666;2023-07-30T00:19:03;6.40;;;3.60;;
74894;SDS011;63447;49.446;8.666;2023-07-30T00:21:35;6.32;;;3.42;;
74894;SDS011;63447;49.446;8.666;2023-07-30T00:24:00;8.63;;;3.83;;
74894;SDS011;63447;49.446;8.666;2023-07-30T00:26:30;6.53;;;3.83;;
74894;SDS011;63447;49.446;8.666;2023-07-30T00:28:58;6.05;;;3.33;;
74894;SDS011;63447;49.446;8.666;2023-07-30T00:31:23;6.27;;;3.37;;
74894;SDS011;63447;49.446;8.666;2023-07-30T00:33:48;6.28;;;3.67;;
74894;SDS011;63447;49.446;8.666;2023-07-30T00:36:16;8.65;;;3.40;;
74894;SDS011;63447;49.446;8.666;2023-07-30T00:38:41;8.97;;;3.50;;
74894;SDS011;63447;49.446;8.666;2023-07-30T00:41:06;6.10;;;3.30;;
74894;SDS011;63447;49.446;8.666;2023-07-30T00:43:34;7.68;;;3.63;;
74894;SDS011;63447;49.446;8.666;2023-07-30T00:46:02;6.18;;;3.05;;
74894;SDS011;63447;49.446;8.666;2023-07-30T00:48:28;7.90;;;3.28;;
74894;SDS011;63447;49.446;8.666;2023-07-30T00:50:56;6.57;;;3.45;;
74894;SDS011;63447;49.446;8.666;2023-07-30T00:53:24;5.65;;;3.15;;
74894;SDS011;63447;49.446;8.666;2023-07-30T00:55:51;7.22;;;3.28;;
74894;SDS011;63447;49.446;8.666;2023-07-30T00:58:17;7.60;;;3.38;;
74894;SDS011;63447;49.446;8.666;2023-07-30T01:00:48;7.20;;;4.00;;
74894;SDS011;63447;49.446;8.666;2023-07-30T01:03:16;6.68;;;3.50;;
74894;SDS011;63447;49.446;8.666;2023-07-30T01:05:44;7.38;;;3.78;;
74894;SDS011;63447;49.446;8.666;2023-07-30T01:08:10;7.90;;;3.65;;
74894;SDS011;63447;49.446;8.666;2023-07-30T01:10:35;7.10;;;3.53;;
74894;SDS011;63447;49.446;8.666;2023-07-30T01:13:03;6.68;;;3.55;;
74894;SDS011;63447;49.446;8.666;2023-07-30T01:15:34;8.10;;;3.78;;
74894;SDS011;63447;49.446;8.666;2023-07-30T01:18:03;6.95;;;3.47;;
74894;SDS011;63447;49.446;8.666;2023-07-30T01:20:34;7.20;;;3.67;;
74894;SDS011;63447;49.446;8.666;2023-07-30T01:23:04;6.15;;;3.33;;
74894;SDS011;63447;49.446;8.666;2023-07-30T01:25:35;8.80;;;3.65;;
74894;SDS011;63447;49.446;8.666;2023-07-30T01:28:01;11.25;;;4.65;;
74894;SDS011;63447;49.446;8.666;2023-07-30T01:30:32;7.20;;;4.00;;
74894;SDS011;63447;49.446;8.666;2023-07-30T01:33:05;7.57;;;4.15;;
74894;SDS011;63447;49.446;8.666;2023-07-30T01:35:37;7.60;;;4.10;;
74894;SDS011;63447;49.446;8.666;2023-07-30T01:38:03;6.25;;;3.65;;
74894;SDS011;63447;49.446;8.666;2023-07-30T01:40:34;6.13;;;3.50;;
74894;SDS011;63447;49.446;8.666;2023-07-30T01:43:02;8.32;;;4.13;;
74894;SDS011;63447;49.446;8.666;2023-07-30T01:45:27;7.93;;;3.90;;
74894;SDS011;63447;49.446;8.666;2023-07-30T01:47:55;7.18;;;3.72;;
74894;SDS011;63447;49.446;8.666;2023-07-30T01:50:22;7.13;;;3.70;;
74894;SDS011;63447;49.446;8.666;2023-07-30T01:52:50;7.60;;;3.75;;
74894;SDS011;63447;49.446;8.666;2023-07-30T01:55:15;8.13;;;3.13;;
74894;SDS011;63447;49.446;8.666;2023-07-30T01:57:41;6.18;;;3.10;;
74894;SDS011;63447;49.446;8.666;2023-07-30T02:00:06;5.87;;;2.90;;
74894;SDS011;63447;49.446;8.666;2023-07-30T02:02:37;6.22;;;2.90;;
74894;SDS011;63447;49.446;8.666;2023-07-30T02:05:04;5.72;;;2.95;;
74894;SDS011;63447;49.446;8.666;2023-07-30T02:07:29;5.85;;;2.80;;
74894;SDS011;63447;49.446;8.666;2023-07-30T02:09:55;7.20;;;2.60;;
74894;SDS011;63447;49.446;8.666;2023-07-30T02:12:21;5.85;;;2.80;;
74894;SDS011;63447;49.446;8.666;2023-07-30T02:14:46;5.65;;;2.67;;
74894;SDS011;63447;49.446;8.666;2023-07-30T02:17:16;5.47;;;2.72;;
74894;SDS011;63447;49.446;8.666;2023-07-30T02:19:41;6.60;;;2.83;;
74894;SDS011;63447;49.446;8.666;2023-07-30T02:22:07;5.35;;;2.38;;
74894;SDS011;63447;49.446;8.666;2023-07-30T02:24:32;8.40;;;2.80;;
74894;SDS011;63447;49.446;8.666;2023-07-30T02:26:58;6.77;;;2.70;;
74894;SDS011;63447;49.446;8.666;2023-07-30T02:29:23;5.07;;;2.72;;
74894;SDS011;63447;49.446;8.666;2023-07-30T02:31:48;5.90;;;2.67;;
74894;SDS011;63447;49.446;8.666;2023-07-30T02:34:14;6.07;;;2.80;;
74894;SDS011;63447;49.446;8.666;2023-07-30T02:36:39;5.63;;;2.93;;
74894;SDS011;63447;49.446;8.666;2023-07-30T02:39:04;5.23;;;2.30;;
74894;SDS011;63447;49.446;8.666;2023-07-30T02:41:36;6.22;;;2.60;;
74894;SDS011;63447;49.446;8.666;2023-07-30T02:44:02;6.05;;;2.75;;
74894;SDS011;63447;49.446;8.666;2023-07-30T02:46:29;6.20;;;2.70;;
74894;SDS011;63447;49.446;8.666;2023-07-30T02:48:57;5.60;;;2.35;;
74894;SDS011;63447;49.446;8.666;2023-07-30T02:51:24;7.75;;;3.00;;
74894;SDS011;63447;49.446;8.666;2023-07-30T02:53:51;8.00;;;2.93;;
74894;SDS011;63447;49.446;8.666;2023-07-30T02:56:18;6.05;;;3.28;;
74894;SDS011;63447;49.446;8.666;2023-07-30T02:58:43;6.20;;;3.10;;
74894;SDS011;63447;49.446;8.666;2023-07-30T03:01:11;6.22;;;3.60;;
74894;SDS011;63447;49.446;8.666;2023-07-30T03:03:36;7.60;;;3.90;;
74894;SDS011;63447;49.446;8.666;2023-07-30T03:06:02;6.60;;;3.83;;
74894;SDS011;63447;49.446;8.666;2023-07-30T03:08:27;6.68;;;3.75;;
74894;SDS011;63447;49.446;8.666;2023-07-30T03:10:52;5.90;;;3.57;;
74894;SDS011;63447;49.446;8.666;2023-07-30T03:13:20;6.88;;;3.85;;
74894;SDS011;63447;49.446;8.666;2023-07-30T03:15:46;6.97;;;4.40;;
74894;SDS011;63447;49.446;8.666;2023-07-30T03:18:11;6.50;;;3.97;;
74894;SDS011;63447;49.446;8.666;2023-07-30T03:20:37;5.97;;;3.83;;
74894;SDS011;63447;49.446;8.666;2023-07-30T03:23:05;6.13;;;3.90;;
74894;SDS011;63447;49.446;8.666;2023-07-30T03:25:32;6.68;;;3.83;;
74894;SDS011;63447;49.446;8.666;2023-07-30T03:28:00;6.53;;;3.78;;
74894;SDS011;63447;49.446;8.666;2023-07-30T03:30:25;5.77;;;3.50;;
74894;SDS011;63447;49.446;8.666;2023-07-30T03:32:50;6.60;;;4.03;;
74894;SDS011;63447;49.446;8.666;2023-07-30T03:35:20;7.00;;;3.70;;
74894;SDS011;63447;49.446;8.666;2023-07-30T03:37:46;5.77;;;3.27;;
74894;SDS011;63447;49.446;8.666;2023-07-30T03:40:11;7.00;;;3.47;;
74894;SDS011;63447;49.446;8.666;2023-07-30T03:42:44;6.60;;;3.67;;
74894;SDS011;63447;49.446;8.666;2023-07-30T03:45:09;6.55;;;3.53;;
74894;SDS011;63447;49.446;8.666;2023-07-30T03:47:39;6.95;;;3.80;;
74894;SDS011;63447;49.446;8.666;2023-07-30T03:50:07;6.45;;;3.90;;
74894;SDS011;63447;49.446;8.666;2023-07-30T03:52:32;7.10;;;3.90;;
74894;SDS011;63447;49.446;8.666;2023-07-30T03:54:58;6.37;;;3.80;;
74894;SDS011;63447;49.446;8.666;2023-07-30T03:57:23;6.83;;;3.90;;
74894;SDS011;63447;49.446;8.666;2023-07-30T03:59:48;7.93;;;4.17;;
74894;SDS011;63447;49.446;8.666;2023-07-30T04:02:16;7.25;;;4.10;;
74894;SDS011;63447;49.446;8.666;2023-07-30T04:04:42;7.40;;;4.13;;
74894;SDS011;63447;49.446;8.666;2023-07-30T04:07:11;5.82;;;3.65;;
74894;SDS011;63447;49.446;8.666;2023-07-30T04:09:38;7.95;;;4.50;;
74894;SDS011;63447;49.446;8.666;2023-07-30T04:12:06;8.32;;;4.28;;
74894;SDS011;63447;49.446;8.666;2023-07-30T04:14:34;6.97;;;4.20;;
74894;SDS011;63447;49.446;8.666;2023-07-30T04:17:02;7.05;;;4.13;;
74894;SDS011;63447;49.446;8.666;2023-07-30T04:19:30;8.45;;;4.30;;
74894;SDS011;63447;49.446;8.666;2023-07-30T04:21:58;7.30;;;4.50;;
74894;SDS011;63447;49.446;8.666;2023-07-30T04:24:23;7.45;;;4.20;;
74894;SDS011;63447;49.446;8.666;2023-07-30T04:26:49;7.37;;;4.63;;
74894;SDS011;63447;49.446;8.666;2023-07-30T04:29:14;7.80;;;4.57;;
74894;SDS011;63447;49.446;8.666;2023-07-30T04:31:41;6.45;;;4.28;;
74894;SDS011;63447;49.446;8.666;2023-07-30T04:34:11;7.13;;;4.10;;
74894;SDS011;63447;49.446;8.666;2023-07-30T04:36:36;7.57;;;4.60;;
74894;SDS011;63447;49.446;8.666;2023-07-30T04:39:06;8.10;;;5.10;;
74894;SDS011;63447;49.446;8.666;2023-07-30T04:41:31;7.82;;;4.30;;
74894;SDS011;63447;49.446;8.666;2023-07-30T04:43:57;8.17;;;4.50;;
74894;SDS011;63447;49.446;8.666;2023-07-30T04:46:22;8.70;;;4.80;;
74894;SDS011;63447;49.446;8.666;2023-07-30T04:48:50;8.52;;;4.65;;
74894;SDS011;63447;49.446;8.666;2023-07-30T04:51:20;7.68;;;4.15;;
74894;SDS011;63447;49.446;8.666;2023-07-30T04:53:46;7.68;;;5.00;;
74894;SDS011;63447;49.446;8.666;2023-07-30T04:56:16;8.70;;;4.43;;
74894;SDS011;63447;49.446;8.666;2023-07-30T04:58:43;9.50;;;4.80;;
74894;SDS011;63447;49.446;8.666;2023-07-30T05:01:11;8.98;;;4.63;;
74894;SDS011;63447;49.446;8.666;2023-07-30T05:03:38;8.75;;;4.35;;
74894;SDS011;63447;49.446;8.666;2023-07-30T05:06:04;8.40;;;3.93;;
74894;SDS011;63447;49.446;8.666;2023-07-30T05:08:33;8.35;;;4.50;;
74894;SDS011;63447;49.446;8.666;2023-07-30T05:10:58;6.72;;;3.90;;
74894;SDS011;63447;49.446;8.666;2023-07-30T05:13:26;6.97;;;3.97;;
74894;SDS011;63447;49.446;8.666;2023-07-30T05:15:51;6.20;;;3.80;;
74894;SDS011;63447;49.446;8.666;2023-07-30T05:18:19;6.22;;;3.63;;
74894;SDS011;63447;49.446;8.666;2023-07-30T05:20:50;7.72;;;3.55;;
74894;SDS011;63447;49.446;8.666;2023-07-30T05:23:19;6.18;;;3.80;;
74894;SDS011;63447;49.446;8.666;2023-07-30T05:25:45;6.55;;;3.58;;
74894;SDS011;63447;49.446;8.666;2023-07-30T05:28:10;6.80;;;3.77;;
74894;SDS011;63447;49.446;8.666;2023-07-30T05:30:36;5.40;;;3.55;;
74894;SDS011;63447;49.446;8.666;2023-07-30T05:33:09;5.50;;;3.08;;
74894;SDS011;63447;49.446;8.666;2023-07-30T05:35:36;5.80;;;3.25;;
74894;SDS011;63447;49.446;8.666;2023-07-30T05:38:02;5.22;;;2.92;;
74894;SDS011;63447;49.446;8.666;2023-07-30T05:40:27;5.60;;;3.10;;
74894;SDS011;63447;49.446;8.666;2023-07-30T05:42:52;5.33;;;3.03;;
74894;SDS011;63447;49.446;8.666;2023-07-30T05:45:18;5.83;;;2.70;;
74894;SDS011;63447;49.446;8.666;2023-07-30T05:47:45;6.55;;;2.90;;
74894;SDS011;63447;49.446;8.666;2023-07-30T05:50:13;4.95;;;2.53;;
74894;SDS011;63447;49.446;8.666;2023-07-30T05:52:43;3.90;;;2.00;;
74894;SDS011;63447;49.446;8.666;2023-07-30T05:55:08;4.17;;;1.90;;
74894;SDS011;63447;49.446;8.666;2023-07-30T05:57:36;4.68;;;2.22;;
74894;SDS011;63447;49.446;8.666;2023-07-30T06:00:06;4.60;;;2.20;;
74894;SDS011;63447;49.446;8.666;2023-07-30T06:02:35;4.40;;;2.00;;
74894;SDS011;63447;49.446;8.666;2023-07-30T06:05:03;5.10;;;2.28;;
74894;SDS011;63447;49.446;8.666;2023-07-30T06:07:31;4.57;;;2.10;;
74894;SDS011;63447;49.446;8.666;2023-07-30T06:09:56;4.45;;;1.90;;
74894;SDS011;63447;49.446;8.666;2023-07-30T06:12:24;4.65;;;1.92;;
74894;SDS011;63447;49.446;8.666;2023-07-30T06:14:51;6.40;;;2.50;;
74894;SDS011;63447;49.446;8.666;2023-07-30T06:17:19;5.13;;;2.50;;
74894;SDS011;63447;49.446;8.666;2023-07-30T06:19:46;5.75;;;2.70;;
74894;SDS011;63447;49.446;8.666;2023-07-30T06:22:12;6.03;;;3.60;;
74894;SDS011;63447;49.446;8.666;2023-07-30T06:24:37;7.20;;;4.60;;
74894;SDS011;63447;49.446;8.666;2023-07-30T06:27:02;9.43;;;5.33;;
74894;SDS011;63447;49.446;8.666;2023-07-30T06:29:31;8.73;;;6.20;;
74894;SDS011;63447;49.446;8.666;2023-07-30T06:31:56;9.50;;;6.82;;
74894;SDS011;63447;49.446;8.666;2023-07-30T06:34:24;8.43;;;5.30;;
74894;SDS011;63447;49.446;8.666;2023-07-30T06:36:51;7.82;;;5.13;;
74894;SDS011;63447;49.446;8.666;2023-07-30T06:39:16;7.07;;;4.80;;
74894;SDS011;63447;49.446;8.666;2023-07-30T06:41:44;8.02;;;4.65;;
74894;SDS011;63447;49.446;8.666;2023-07-30T06:44:09;6.93;;;4.70;;
74894;SDS011;63447;49.446;8.666;2023-07-30T06:46:35;7.97;;;5.10;;
74894;SDS011;63447;49.446;8.666;2023-07-30T06:49:05;6.25;;;4.15;;
74894;SDS011;63447;49.446;8.666;2023-07-30T06:51:30;7.22;;;4.40;;
74894;SDS011;63447;49.446;8.666;2023-07-30T06:53:56;8.57;;;4.30;;
74894;SDS011;63447;49.446;8.666;2023-07-30T06:56:21;9.00;;;4.93;;
74894;SDS011;63447;49.446;8.666;2023-07-30T06:58:46;6.70;;;4.13;;
74894;SDS011;63447;49.446;8.666;2023-07-30T07:01:12;6.83;;;3.73;;
74894;SDS011;63447;49.446;8.666;2023-07-30T07:03:39;7.57;;;3.78;;
74894;SDS011;63447;49.446;8.666;2023-07-30T07:06:07;5.93;;;3.60;;
74894;SDS011;63447;49.446;8.666;2023-07-30T07:08:35;8.88;;;3.50;;
74894;SDS011;63447;49.446;8.666;2023-07-30T07:11:02;5.50;;;3.10;;
74894;SDS011;63447;49.446;8.666;2023-07-30T07:13:33;6.32;;;3.20;;
74894;SDS011;63447;49.446;8.666;2023-07-30T07:16:01;5.28;;;2.90;;
74894;SDS011;63447;49.446;8.666;2023-07-30T07:18:26;7.10;;;3.47;;
74894;SDS011;63447;49.446;8.666;2023-07-30T07:20:53;5.25;;;2.92;;
74894;SDS011;63447;49.446;8.666;2023-07-30T07:23:18;5.87;;;2.93;;
74894;SDS011;63447;49.446;8.666;2023-07-30T07:25:49;6.57;;;3.50;;
74894;SDS011;63447;49.446;8.666;2023-07-30T07:28:14;6.70;;;3.53;;
74894;SDS011;63447;49.446;8.666;2023-07-30T07:30:43;6.43;;;3.33;;
74894;SDS011;63447;49.446;8.666;2023-07-30T07:33:13;5.93;;;3.47;;
74894;SDS011;63447;49.446;8.666;2023-07-30T07:35:39;7.17;;;3.43;;
74894;SDS011;63447;49.446;8.666;2023-07-30T07:38:05;5.80;;;3.65;;
74894;SDS011;63447;49.446;8.666;2023-07-30T07:40:36;6.05;;;3.63;;
74894;SDS011;63447;49.446;8.666;2023-07-30T07:43:04;6.35;;;3.97;;
74894;SDS011;63447;49.446;8.666;2023-07-30T07:45:32;6.22;;;3.53;;
74894;SDS011;63447;49.446;8.666;2023-07-30T07:48:00;5.45;;;3.60;;
74894;SDS011;63447;49.446;8.666;2023-07-30T07:50:28;6.03;;;4.00;;
74894;SDS011;63447;49.446;8.666;2023-07-30T07:52:55;6.82;;;3.95;;
74894;SDS011;63447;49.446;8.666;2023-07-30T07:55:23;6.63;;;3.78;;
74894;SDS011;63447;49.446;8.666;2023-07-30T07:57:48;6.82;;;3.42;;
74894;SDS011;63447;49.446;8.666;2023-07-30T08:00:13;7.03;;;4.10;;
74894;SDS011;63447;49.446;8.666;2023-07-30T08:02:39;6.53;;;3.90;;
74894;SDS011;63447;49.446;8.666;2023-07-30T08:05:04;7.07;;;3.60;;
74894;SDS011;63447;49.446;8.666;2023-07-30T08:07:29;5.22;;;3.38;;
74894;SDS011;63447;49.446;8.666;2023-07-30T08:09:55;6.37;;;3.60;;
74894;SDS011;63447;49.446;8.666;2023-07-30T08:12:22;5.95;;;3.42;;
74894;SDS011;63447;49.446;8.666;2023-07-30T08:14:48;6.37;;;3.20;;
74894;SDS011;63447;49.446;8.666;2023-07-30T08:17:15;6.15;;;3.45;;
74894;SDS011;63447;49.446;8.666;2023-07-30T08:19:41;6.68;;;3.63;;
74894;SDS011;63447;49.446;8.666;2023-07-30T08:22:06;6.37;;;3.10;;
74894;SDS011;63447;49.446;8.666;2023-07-30T08:24:33;6.13;;;3.20;;
74894;SDS011;63447;49.446;8.666;2023-07-30T08:26:59;6.33;;;2.90;;
74894;SDS011;63447;49.446;8.666;2023-07-30T08:29:24;4.90;;;2.90;;
74894;SDS011;63447;49.446;8.666;2023-07-30T08:31:49;5.33;;;3.00;;
74894;SDS011;63447;49.446;8.666;2023-07-30T08:34:15;5.80;;;3.10;;
74894;SDS011;63447;49.446;8.666;2023-07-30T08:36:42;7.18;;;3.25;;
74894;SDS011;63447;49.446;8.666;2023-07-30T08:39:10;6.53;;;3.05;;
74894;SDS011;63447;49.446;8.666;2023-07-30T08:41:35;5.63;;;2.90;;
74894;SDS011;63447;49.446;8.666;2023-07-30T08:44:05;5.85;;;3.03;;
74894;SDS011;63447;49.446;8.666;2023-07-30T08:46:31;7.10;;;3.33;;
74894;SDS011;63447;49.446;8.666;2023-07-30T08:48:59;5.53;;;2.55;;
74894;SDS011;63447;49.446;8.666;2023-07-30T08:51:29;5.65;;;2.40;;
74894;SDS011;63447;49.446;8.666;2023-07-30T08:53:56;5.88;;;2.67;;
74894;SDS011;63447;49.446;8.666;2023-07-30T08:56:23;5.85;;;2.60;;
74894;SDS011;63447;49.446;8.666;2023-07-30T08:58:51;4.32;;;2.22;;
74894;SDS011;63447;49.446;8.666;2023-07-30T09:01:19;5.93;;;2.63;;
74894;SDS011;63447;49.446;8.666;2023-07-30T09:03:45;4.75;;;1.98;;
74894;SDS011;63447;49.446;8.666;2023-07-30T09:06:13;4.55;;;2.03;;
74894;SDS011;63447;49.446;8.666;2023-07-30T09:08:38;4.30;;;1.60;;
74894;SDS011;63447;49.446;8.666;2023-07-30T09:11:08;3.70;;;1.65;;
74894;SDS011;63447;49.446;8.666;2023-07-30T09:13:38;4.82;;;1.65;;
74894;SDS011;63447;49.446;8.666;2023-07-30T09:16:08;5.13;;;1.80;;
74894;SDS011;63447;49.446;8.666;2023-07-30T09:18:38;4.05;;;1.50;;
74894;SDS011;63447;49.446;8.666;2023-07-30T09:21:08;4.30;;;1.90;;
74894;SDS011;63447;49.446;8.666;2023-07-30T09:23:41;4.00;;;1.75;;
74894;SDS011;63447;49.446;8.666;2023-07-30T09:26:07;3.67;;;1.58;;
74894;SDS011;63447;49.446;8.666;2023-07-30T09:28:32;5.07;;;1.70;;
74894;SDS011;63447;49.446;8.666;2023-07-30T09:31:01;4.72;;;1.63;;
74894;SDS011;63447;49.446;8.666;2023-07-30T09:33:31;4.30;;;1.88;;
74894;SDS011;63447;49.446;8.666;2023-07-30T09:36:02;4.78;;;1.80;;
74894;SDS011;63447;49.446;8.666;2023-07-30T09:38:28;4.03;;;1.77;;
74894;SDS011;63447;49.446;8.666;2023-07-30T09:41:01;3.92;;;1.80;;
74894;SDS011;63447;49.446;8.666;2023-07-30T09:43:33;4.32;;;1.42;;
74894;SDS011;63447;49.446;8.666;2023-07-30T09:46:01;4.97;;;1.80;;
74894;SDS011;63447;49.446;8.666;2023-07-30T09:48:32;4.35;;;2.00;;
74894;SDS011;63447;49.446;8.666;2023-07-30T09:50:58;5.00;;;1.50;;
74894;SDS011;63447;49.446;8.666;2023-07-30T09:53:30;4.72;;;1.63;;
74894;SDS011;63447;49.446;8.666;2023-07-30T09:55:59;5.50;;;2.67;;
74894;SDS011;63447;49.446;8.666;2023-07-30T09:58:26;5.57;;;1.60;;
74894;SDS011;63447;49.446;8.666;2023-07-30T10:00:51;4.77;;;2.00;;
74894;SDS011;63447;49.446;8.666;2023-07-30T10:03:17;3.85;;;1.50;;
74894;SDS011;63447;49.446;8.666;2023-07-30T10:05:45;4.30;;;1.70;;
74894;SDS011;63447;49.446;8.666;2023-07-30T10:08:14;5.90;;;2.13;;
74894;SDS011;63447;49.446;8.666;2023-07-30T10:10:45;4.32;;;1.65;;
74894;SDS011;63447;49.446;8.666;2023-07-30T10:13:11;5.40;;;1.70;;
74894;SDS011;63447;49.446;8.666;2023-07-30T10:15:40;4.80;;;1.60;;
74894;SDS011;63447;49.446;8.666;2023-07-30T10:18:08;4.10;;;1.50;;
74894;SDS011;63447;49.446;8.666;2023-07-30T10:20:35;4.60;;;1.60;;
74894;SDS011;63447;49.446;8.666;2023-07-30T10:23:01;4.63;;;1.60;;
74894;SDS011;63447;49.446;8.666;2023-07-30T10:25:48;4.75;;;1.65;;
74894;SDS011;63447;49.446;8.666;2023-07-30T10:30:55;4.80;;;1.63;;
74894;SDS011;63447;49.446;8.666;2023-07-30T10:33:22;6.28;;;1.42;;
74894;SDS011;63447;49.446;8.666;2023-07-30T10:35:47;3.78;;;1.50;;
74894;SDS011;63447;49.446;8.666;2023-07-30T10:38:17;5.10;;;1.50;;
74894;SDS011;63447;49.446;8.666;2023-07-30T10:41:03;3.72;;;1.40;;
74894;SDS011;63447;49.446;8.666;2023-07-30T10:46:05;4.22;;;1.50;;
74894;SDS011;63447;49.446;8.666;2023-07-30T10:50:59;4.88;;;1.10;;
74894;SDS011;63447;49.446;8.666;2023-07-30T10:53:34;5.63;;;1.10;;
74894;SDS011;63447;49.446;8.666;2023-07-30T10:56:04;3.50;;;1.23;;
74894;SDS011;63447;49.446;8.666;2023-07-30T10:58:31;3.70;;;1.38;;
74894;SDS011;63447;49.446;8.666;2023-07-30T11:00:57;4.93;;;1.30;;
74894;SDS011;63447;49.446;8.666;2023-07-30T11:03:26;4.95;;;1.30;;
74894;SDS011;63447;49.446;8.666;2023-07-30T11:05:51;4.07;;;1.30;;
74894;SDS011;63447;49.446;8.666;2023-07-30T11:08:17;3.85;;;1.20;;
74894;SDS011;63447;49.446;8.666;2023-07-30T11:10:43;3.53;;;1.05;;
74894;SDS011;63447;49.446;8.666;2023-07-30T11:13:15;3.80;;;1.40;;
74894;SDS011;63447;49.446;8.666;2023-07-30T11:15:41;3.78;;;1.10;;
74894;SDS011;63447;49.446;8.666;2023-07-30T11:18:11;3.80;;;1.13;;
74894;SDS011;63447;49.446;8.666;2023-07-30T11:20:40;3.47;;;1.10;;
74894;SDS011;63447;49.446;8.666;2023-07-30T11:23:20;3.50;;;0.93;;
74894;SDS011;63447;49.446;8.666;2023-07-30T11:25:49;3.10;;;1.10;;
74894;SDS011;63447;49.446;8.666;2023-07-30T11:28:28;4.00;;;1.10;;
74894;SDS011;63447;49.446;8.666;2023-07-30T11:30:54;3.05;;;0.93;;
74894;SDS011;63447;49.446;8.666;2023-07-30T11:33:25;3.75;;;1.30;;
74894;SDS011;63447;49.446;8.666;2023-07-30T11:35:53;4.22;;;1.50;;
74894;SDS011;63447;49.446;8.666;2023-07-30T11:38:24;4.35;;;1.50;;
74894;SDS011;63447;49.446;8.666;2023-07-30T11:40:53;4.35;;;1.10;;
74894;SDS011;63447;49.446;8.666;2023-07-30T11:43:20;4.68;;;1.25;;
74894;SDS011;63447;49.446;8.666;2023-07-30T11:45:46;3.30;;;1.10;;
74894;SDS011;63447;49.446;8.666;2023-07-30T11:48:12;4.97;;;1.30;;
74894;SDS011;63447;49.446;8.666;2023-07-30T11:53:09;4.47;;;1.90;;
74894;SDS011;63447;49.446;8.666;2023-07-30T11:55:37;9.13;;;4.38;;
74894;SDS011;63447;49.446;8.666;2023-07-30T11:58:06;4.82;;;1.20;;
74894;SDS011;63447;49.446;8.666;2023-07-30T12:00:35;6.07;;;1.45;;
74894;SDS011;63447;49.446;8.666;2023-07-30T12:03:03;4.03;;;1.40;;
74894;SDS011;63447;49.446;8.666;2023-07-30T12:05:35;3.45;;;1.15;;
74894;SDS011;63447;49.446;8.666;2023-07-30T12:08:12;3.92;;;1.00;;
74894;SDS011;63447;49.446;8.666;2023-07-30T12:13:18;4.18;;;1.23;;
74894;SDS011;63447;49.446;8.666;2023-07-30T12:15:53;4.85;;;1.20;;
74894;SDS011;63447;49.446;8.666;2023-07-30T12:18:19;4.05;;;1.27;;
74894;SDS011;63447;49.446;8.666;2023-07-30T12:20:47;4.82;;;1.10;;
74894;SDS011;63447;49.446;8.666;2023-07-30T12:23:13;5.20;;;1.20;;
74894;SDS011;63447;49.446;8.666;2023-07-30T12:25:39;3.72;;;1.20;;
74894;SDS011;63447;49.446;8.666;2023-07-30T12:28:04;4.53;;;1.13;;
74894;SDS011;63447;49.446;8.666;2023-07-30T12:30:30;4.03;;;1.10;;
74894;SDS011;63447;49.446;8.666;2023-07-30T12:32:57;5.85;;;1.30;;
74894;SDS011;63447;49.446;8.666;2023-07-30T12:35:23;5.55;;;1.13;;
74894;SDS011;63447;49.446;8.666;2023-07-30T12:37:53;4.15;;;1.02;;
74894;SDS011;63447;49.446;8.666;2023-07-30T12:40:18;4.60;;;1.35;;
74894;SDS011;63447;49.446;8.666;2023-07-30T12:42:49;4.95;;;1.38;;
74894;SDS011;63447;49.446;8.666;2023-07-30T12:45:19;4.35;;;1.17;;
74894;SDS011;63447;49.446;8.666;2023-07-30T12:47:48;6.28;;;1.25;;
74894;SDS011;63447;49.446;8.666;2023-07-30T12:50:16;5.93;;;1.27;;
74894;SDS011;63447;49.446;8.666;2023-07-30T12:52:41;6.17;;;1.60;;
74894;SDS011;63447;49.446;8.666;2023-07-30T12:55:06;5.63;;;1.42;;
74894;SDS011;63447;49.446;8.666;2023-07-30T12:57:32;4.18;;;1.33;;
74894;SDS011;63447;49.446;8.666;2023-07-30T12:59:57;4.68;;;1.35;;
74894;SDS011;63447;49.446;8.666;2023-07-30T13:02:23;3.90;;;1.00;;
74894;SDS011;63447;49.446;8.666;2023-07-30T13:04:50;5.00;;;1.60;;
74894;SDS011;63447;49.446;8.666;2023-07-30T13:07:16;3.83;;;1.23;;
74894;SDS011;63447;49.446;8.666;2023-07-30T13:09:41;5.30;;;1.37;;
74894;SDS011;63447;49.446;8.666;2023-07-30T13:12:06;4.95;;;1.10;;
74894;SDS011;63447;49.446;8.666;2023-07-30T13:14:32;3.53;;;1.05;;
74894;SDS011;63447;49.446;8.666;2023-07-30T13:16:57;4.67;;;1.50;;
74894;SDS011;63447;49.446;8.666;2023-07-30T13:19:23;4.77;;;1.33;;
74894;SDS011;63447;49.446;8.666;2023-07-30T13:21:50;3.90;;;1.20;;
74894;SDS011;63447;49.446;8.666;2023-07-30T13:24:15;5.18;;;1.20;;
74894;SDS011;63447;49.446;8.666;2023-07-30T13:26:41;4.97;;;1.33;;
74894;SDS011;63447;49.446;8.666;2023-07-30T13:29:06;5.03;;;1.33;;
74894;SDS011;63447;49.446;8.666;2023-07-30T13:31:36;4.80;;;1.58;;
74894;SDS011;63447;49.446;8.666;2023-07-30T13:34:02;4.00;;;1.30;;
74894;SDS011;63447;49.446;8.666;2023-07-30T13:36:30;3.92;;;1.15;;
74894;SDS011;63447;49.446;8.666;2023-07-30T13:38:55;5.00;;;1.60;;
74894;SDS011;63447;49.446;8.666;2023-07-30T13:41:22;5.00;;;1.20;;
74894;SDS011;63447;49.446;8.666;2023-07-30T13:43:48;4.97;;;1.20;;
74894;SDS011;63447;49.446;8.666;2023-07-30T13:46:15;6.55;;;1.30;;
74894;SDS011;63447;49.446;8.666;2023-07-30T13:48:43;3.72;;;1.20;;
74894;SDS011;63447;49.446;8.666;2023-07-30T13:51:08;5.10;;;1.23;;
74894;SDS011;63447;49.446;8.666;2023-07-30T13:53:33;5.03;;;1.60;;
74894;SDS011;63447;49.446;8.666;2023-07-30T13:56:03;4.60;;;1.30;;
74894;SDS011;63447;49.446;8.666;2023-07-30T13:58:28;4.32;;;1.30;;
74894;SDS011;63447;49.446;8.666;2023-07-30T14:00:54;5.47;;;1.50;;
74894;SDS011;63447;49.446;8.666;2023-07-30T14:03:20;4.78;;;1.30;;
74894;SDS011;63447;49.446;8.666;2023-07-30T14:05:48;3.87;;;1.20;;
74894;SDS011;63447;49.446;8.666;2023-07-30T14:08:13;5.88;;;1.30;;
74894;SDS011;63447;49.446;8.666;2023-07-30T14:10:38;5.67;;;1.37;;
74894;SDS011;63447;49.446;8.666;2023-07-30T14:13:08;3.75;;;1.08;;
74894;SDS011;63447;49.446;8.666;2023-07-30T14:15:34;4.63;;;1.48;;
74894;SDS011;63447;49.446;8.666;2023-07-30T14:17:59;5.00;;;1.40;;
74894;SDS011;63447;49.446;8.666;2023-07-30T14:20:27;3.55;;;1.13;;
74894;SDS011;63447;49.446;8.666;2023-07-30T14:22:55;4.43;;;1.17;;
74894;SDS011;63447;49.446;8.666;2023-07-30T14:25:20;4.65;;;1.40;;
74894;SDS011;63447;49.446;8.666;2023-07-30T14:27:45;5.07;;;1.33;;
74894;SDS011;63447;49.446;8.666;2023-07-30T14:30:13;4.63;;;1.20;;
74894;SDS011;63447;49.446;8.666;2023-07-30T14:32:40;4.10;;;1.10;;
74894;SDS011;63447;49.446;8.666;2023-07-30T14:35:06;5.00;;;1.43;;
74894;SDS011;63447;49.446;8.666;2023-07-30T14:37:32;4.10;;;1.30;;
74894;SDS011;63447;49.446;8.666;2023-07-30T14:39:59;4.78;;;1.30;;
74894;SDS011;63447;49.446;8.666;2023-07-30T14:42:24;4.20;;;1.27;;
74894;SDS011;63447;49.446;8.666;2023-07-30T14:44:50;4.20;;;1.10;;
74894;SDS011;63447;49.446;8.666;2023-07-30T14:47:15;5.73;;;1.47;;
74894;SDS011;63447;49.446;8.666;2023-07-30T14:49:40;4.60;;;1.20;;
74894;SDS011;63447;49.446;8.666;2023-07-30T14:52:08;4.60;;;1.00;;
74894;SDS011;63447;49.446;8.666;2023-07-30T14:54:36;4.25;;;1.20;;
74894;SDS011;63447;49.446;8.666;2023-07-30T14:57:01;5.20;;;1.30;;
74894;SDS011;63447;49.446;8.666;2023-07-30T14:59:29;3.92;;;1.10;;
74894;SDS011;63447;49.446;8.666;2023-07-30T15:01:55;6.13;;;1.25;;